KBWI

Baltimore / Washington International Thurgood Marshall Airport

Baltimore, Maryland, USA
METAR KBWI 110154Z 28003KT 10SM SCT250 M02/M05 A3019 RMK AO2 SLP223 T10171050
Observed Flight Rules
Dec-11 @ 01:54 UTC (30 minutes ago) Visual Flight Rules
Wind Visibility Clouds
280° at 3 knots 10 miles
  • Scattered at 25,000' AGL
Temperatures Readings
Current -2°C / 28°F
Dewpoint -5°C / 23°F
Humidity 80%
Altimeter 30.19" Hg
Pressure 1022.3 hPa
Elevation 59
METAR KBWI 110154Z 28003KT 10SM SCT250 M02/M05 A3019 RMK AO2 SLP223 T10171050
Observed Flight Rules
Dec-11 @ 01:54 UTC
(30 minutes ago)
VFR
Wind Visibility
280° at 3 knots 10 miles
Clouds
  • Scattered at 25,000' AGL
Temperature Dewpoint
-2°C / 28°F -5°C / 23°F
Humidity Altimeter Pressure
80% 30.19" Hg 1022.3 hPa